createdAt,value
2018-04-27T00:00:16.229Z,0.00
2018-04-27T00:01:16.203Z,0.00
2018-04-27T00:02:16.177Z,0.00
2018-04-27T00:03:16.157Z,0.00
2018-04-27T00:04:16.130Z,0.00
2018-04-27T00:05:16.107Z,0.00
2018-04-27T00:06:16.089Z,0.00
2018-04-27T00:07:16.080Z,0.00
2018-04-27T00:08:16.036Z,0.00
2018-04-27T00:09:16.022Z,0.00
2018-04-27T00:10:15.991Z,0.00
2018-04-27T00:11:15.965Z,0.00
2018-04-27T00:12:15.951Z,0.00
2018-04-27T00:13:15.923Z,0.00
2018-04-27T00:14:15.904Z,0.00
2018-04-27T00:15:15.876Z,0.00
2018-04-27T00:16:15.852Z,0.00
2018-04-27T00:17:15.830Z,0.00
2018-04-27T00:18:15.811Z,0.00
2018-04-27T00:19:15.811Z,0.00
2018-04-27T00:20:15.758Z,0.00
2018-04-27T00:21:15.782Z,0.00
2018-04-27T00:22:15.716Z,0.00
2018-04-27T00:23:15.701Z,0.00
2018-04-27T00:24:15.668Z,0.00
2018-04-27T00:25:15.643Z,0.00
2018-04-27T00:26:15.624Z,0.00
2018-04-27T00:27:15.596Z,0.00
2018-04-27T00:28:15.576Z,0.00
2018-04-27T00:29:15.551Z,0.00
2018-04-27T00:30:15.554Z,0.00
2018-04-27T00:31:15.516Z,0.00
2018-04-27T00:32:15.488Z,0.00
2018-04-27T00:33:15.467Z,0.00
2018-04-27T00:34:15.517Z,0.00
2018-04-27T00:35:15.413Z,0.00
2018-04-27T00:36:15.394Z,0.00
2018-04-27T00:37:15.395Z,0.00
2018-04-27T00:38:15.350Z,0.00
2018-04-27T00:39:15.321Z,0.00
2018-04-27T00:40:15.307Z,0.00
2018-04-27T00:41:15.277Z,0.00
2018-04-27T00:42:15.251Z,0.00
2018-04-27T00:43:15.231Z,0.00
2018-04-27T00:44:15.209Z,0.00
2018-04-27T00:45:15.200Z,0.00
2018-04-27T00:46:15.163Z,0.00
2018-04-27T00:47:15.138Z,0.00
2018-04-27T00:48:15.119Z,0.00
2018-04-27T00:49:15.098Z,0.00
2018-04-27T00:50:15.090Z,0.00
2018-04-27T00:51:15.046Z,0.00
2018-04-27T00:52:15.022Z,0.00
2018-04-27T00:53:14.999Z,0.00
2018-04-27T00:54:14.976Z,0.00
2018-04-27T00:55:14.964Z,0.00
2018-04-27T00:56:14.924Z,0.00
2018-04-27T00:57:14.904Z,0.00
2018-04-27T00:58:14.882Z,0.00
2018-04-27T00:59:14.908Z,0.00
2018-04-27T01:00:14.842Z,0.00
2018-04-27T01:01:14.810Z,0.00
2018-04-27T01:02:14.801Z,0.00
2018-04-27T01:03:14.766Z,0.00
2018-04-27T01:04:14.751Z,0.00
2018-04-27T01:05:14.720Z,0.00
2018-04-27T01:06:14.695Z,0.00
2018-04-27T01:07:14.690Z,0.00
2018-04-27T01:08:14.654Z,0.00
2018-04-27T01:09:14.631Z,0.00
2018-04-27T01:10:14.603Z,0.00
2018-04-27T01:11:14.579Z,0.00
2018-04-27T01:12:14.559Z,0.00
2018-04-27T01:13:14.538Z,0.00
2018-04-27T01:14:14.512Z,0.00
2018-04-27T01:15:14.487Z,0.00
2018-04-27T01:16:14.482Z,0.00
2018-04-27T01:17:14.460Z,0.00
2018-04-27T01:18:14.432Z,0.00
2018-04-27T01:19:14.409Z,0.00
2018-04-27T01:20:14.398Z,0.00
2018-04-27T01:21:14.347Z,0.00
2018-04-27T01:22:14.326Z,0.00
2018-04-27T01:23:14.301Z,0.00
2018-04-27T01:24:14.280Z,0.00
2018-04-27T01:25:29.142Z,0.00
2018-04-27T01:26:14.247Z,0.00
2018-04-27T01:27:14.215Z,0.00
2018-04-27T01:28:14.188Z,0.00
2018-04-27T01:29:14.164Z,0.00
2018-04-27T01:30:14.139Z,0.00
2018-04-27T01:31:14.118Z,0.00
2018-04-27T01:32:14.093Z,0.00
2018-04-27T01:33:14.066Z,0.00
2018-04-27T01:34:14.047Z,0.00
2018-04-27T01:35:14.022Z,0.00
2018-04-27T01:36:14.003Z,0.00
2018-04-27T01:37:14.018Z,0.00
2018-04-27T01:38:13.953Z,0.00
2018-04-27T01:39:13.975Z,0.00
2018-04-27T01:40:13.907Z,0.00
2018-04-27T01:41:13.881Z,0.00
2018-04-27T01:42:13.863Z,0.00
2018-04-27T01:43:13.836Z,0.00
2018-04-27T01:44:13.819Z,0.00
2018-04-27T01:45:13.790Z,0.00
2018-04-27T01:46:13.769Z,0.00
2018-04-27T01:47:13.747Z,0.00
2018-04-27T01:48:13.724Z,0.00
2018-04-27T01:49:13.697Z,0.00
2018-04-27T01:50:13.680Z,0.00
2018-04-27T01:51:13.652Z,0.00
2018-04-27T01:52:13.629Z,0.00
2018-04-27T01:53:13.605Z,0.00
2018-04-27T01:54:13.586Z,0.00
2018-04-27T01:55:13.564Z,0.00
2018-04-27T01:56:13.535Z,0.00
2018-04-27T01:57:13.511Z,0.00
2018-04-27T01:58:13.486Z,0.00
2018-04-27T01:59:13.471Z,0.00
2018-04-27T02:00:13.448Z,0.00
2018-04-27T02:01:13.417Z,0.00
2018-04-27T02:02:13.404Z,0.00
2018-04-27T02:03:13.377Z,0.00
2018-04-27T02:04:13.351Z,0.00
2018-04-27T02:05:13.325Z,0.00
2018-04-27T02:06:13.300Z,0.00
2018-04-27T02:07:13.293Z,0.00
2018-04-27T02:08:13.263Z,0.00
2018-04-27T02:09:13.233Z,0.00
2018-04-27T02:10:13.210Z,0.00
2018-04-27T02:11:13.186Z,0.00
2018-04-27T02:12:13.166Z,0.00
2018-04-27T02:13:13.137Z,0.00
2018-04-27T02:14:13.119Z,0.00
2018-04-27T02:15:13.109Z,0.00
2018-04-27T02:16:13.068Z,0.00
2018-04-27T02:17:13.048Z,0.00
2018-04-27T02:18:13.078Z,0.00
2018-04-27T02:19:13.001Z,0.00
2018-04-27T02:20:13.087Z,0.00
2018-04-27T02:21:12.951Z,0.00
2018-04-27T02:22:12.930Z,0.00
2018-04-27T02:23:12.911Z,0.00
2018-04-27T02:24:12.885Z,0.00
2018-04-27T02:25:12.859Z,0.00
2018-04-27T02:26:12.834Z,0.00
2018-04-27T02:27:12.816Z,0.00
2018-04-27T02:28:12.791Z,0.00
2018-04-27T02:29:12.759Z,0.00
2018-04-27T02:30:12.741Z,0.00
2018-04-27T02:31:12.718Z,0.00
2018-04-27T02:32:12.700Z,0.00
2018-04-27T02:33:12.676Z,0.00
2018-04-27T02:34:12.655Z,0.00
2018-04-27T02:35:12.622Z,0.00
2018-04-27T02:36:12.604Z,0.00
2018-04-27T02:37:12.573Z,0.00
2018-04-27T02:38:12.552Z,0.00
2018-04-27T02:39:12.537Z,0.00
2018-04-27T02:40:12.534Z,0.00
2018-04-27T02:41:12.591Z,0.00
2018-04-27T02:42:12.474Z,0.00
2018-04-27T02:43:12.430Z,0.00
2018-04-27T02:44:12.413Z,0.00
2018-04-27T02:45:12.384Z,0.00
2018-04-27T02:46:12.359Z,0.00
2018-04-27T02:47:12.339Z,0.00
2018-04-27T02:48:12.313Z,0.00
2018-04-27T02:49:12.291Z,0.00
2018-04-27T02:50:12.269Z,0.00
2018-04-27T02:51:12.245Z,0.00
2018-04-27T02:52:12.222Z,0.00
2018-04-27T02:53:12.197Z,0.00
2018-04-27T02:54:12.176Z,0.00
2018-04-27T02:55:12.179Z,0.00
2018-04-27T02:56:12.140Z,0.00
2018-04-27T02:57:12.099Z,0.00
2018-04-27T02:58:12.076Z,0.00
2018-04-27T02:59:12.058Z,0.00
2018-04-27T03:00:12.030Z,0.00
2018-04-27T03:01:12.012Z,0.00
2018-04-27T03:02:11.984Z,0.00
2018-04-27T03:03:11.958Z,0.00
2018-04-27T03:04:11.938Z,0.00
2018-04-27T03:05:11.914Z,0.00
2018-04-27T03:06:11.893Z,0.00
2018-04-27T03:07:11.863Z,0.00
2018-04-27T03:08:11.853Z,0.00
2018-04-27T03:09:11.815Z,0.00
2018-04-27T03:10:11.794Z,0.00
2018-04-27T03:11:11.769Z,0.00
2018-04-27T03:12:11.750Z,0.00
2018-04-27T03:13:11.719Z,0.00
2018-04-27T03:14:11.698Z,0.00
2018-04-27T03:15:11.677Z,0.00
2018-04-27T03:16:11.670Z,0.00
2018-04-27T03:17:11.629Z,0.00
2018-04-27T03:18:11.604Z,0.00
2018-04-27T03:19:11.579Z,0.00
2018-04-27T03:20:11.562Z,0.00
2018-04-27T03:21:11.535Z,0.00
2018-04-27T03:22:11.518Z,0.00
2018-04-27T03:23:11.495Z,0.00
2018-04-27T03:24:11.460Z,0.00
2018-04-27T03:25:11.437Z,0.00
2018-04-27T03:26:11.426Z,0.00
2018-04-27T03:27:11.395Z,0.00
2018-04-27T03:28:11.413Z,0.00
2018-04-27T03:29:11.341Z,0.00
2018-04-27T03:30:11.383Z,0.00
2018-04-27T03:31:11.293Z,0.00
2018-04-27T03:32:11.285Z,0.00
2018-04-27T03:33:11.252Z,0.00
2018-04-27T03:34:11.312Z,0.00
2018-04-27T03:35:11.246Z,0.00
2018-04-27T03:36:11.178Z,0.00
2018-04-27T03:37:11.152Z,0.00
2018-04-27T03:38:11.129Z,0.00
2018-04-27T03:39:11.111Z,0.00
2018-04-27T03:40:11.098Z,0.00
2018-04-27T03:41:11.056Z,0.00
2018-04-27T03:42:11.033Z,0.00
2018-04-27T03:43:11.009Z,0.00
2018-04-27T03:44:10.984Z,0.00
2018-04-27T03:45:10.961Z,0.00
2018-04-27T03:46:10.936Z,0.00
2018-04-27T03:47:10.922Z,0.00
2018-04-27T03:48:10.889Z,0.00
2018-04-27T03:49:10.870Z,0.00
2018-04-27T03:50:10.844Z,0.00
2018-04-27T03:51:10.822Z,0.00
2018-04-27T03:52:10.794Z,0.00
2018-04-27T03:53:10.771Z,0.00
2018-04-27T03:54:10.751Z,0.00
2018-04-27T03:55:10.727Z,0.00
2018-04-27T03:56:10.697Z,0.00
2018-04-27T03:57:10.689Z,0.00
2018-04-27T03:58:10.656Z,0.00
2018-04-27T03:59:10.625Z,0.00
2018-04-27T04:00:10.621Z,0.00
2018-04-27T04:01:10.708Z,0.00
2018-04-27T04:02:10.582Z,0.00
2018-04-27T04:03:10.549Z,0.00
2018-04-27T04:04:10.508Z,0.00
2018-04-27T04:05:10.489Z,0.00
2018-04-27T04:06:10.460Z,0.00
2018-04-27T04:07:10.435Z,0.00
2018-04-27T04:08:10.428Z,0.00
2018-04-27T04:09:10.390Z,0.00
2018-04-27T04:10:10.364Z,0.00
2018-04-27T04:11:10.386Z,0.00
2018-04-27T04:12:10.330Z,0.00
2018-04-27T04:13:10.325Z,0.00
2018-04-27T04:14:10.290Z,0.00
2018-04-27T04:15:10.257Z,0.00
2018-04-27T04:16:10.221Z,0.00
2018-04-27T04:17:10.198Z,0.00
2018-04-27T04:18:10.177Z,0.00
2018-04-27T04:19:10.148Z,0.00
2018-04-27T04:20:10.125Z,0.00
2018-04-27T04:21:10.100Z,0.00
2018-04-27T04:22:10.074Z,0.00
2018-04-27T04:23:10.057Z,0.00
2018-04-27T04:24:10.035Z,0.00
2018-04-27T04:25:10.238Z,0.00
2018-04-27T04:26:12.687Z,0.00
2018-04-27T04:27:09.957Z,0.00
2018-04-27T04:28:09.940Z,0.00
2018-04-27T04:29:09.907Z,0.00
2018-04-27T04:30:09.883Z,0.00
2018-04-27T04:31:09.863Z,0.00
2018-04-27T04:32:09.836Z,0.00
2018-04-27T04:33:09.813Z,0.00
2018-04-27T04:34:09.792Z,0.00
2018-04-27T04:35:09.773Z,0.00
2018-04-27T04:36:09.740Z,0.00
2018-04-27T04:37:09.717Z,0.00
2018-04-27T04:38:09.694Z,0.00
2018-04-27T04:39:09.667Z,0.00
2018-04-27T04:40:09.660Z,0.00
2018-04-27T04:41:09.623Z,0.00
2018-04-27T04:42:09.604Z,0.00
2018-04-27T04:43:09.573Z,0.00
2018-04-27T04:44:09.548Z,5.63
2018-04-27T04:45:09.578Z,5.63
2018-04-27T04:46:09.496Z,5.63
2018-04-27T04:47:09.477Z,5.63
2018-04-27T04:48:09.455Z,5.63
2018-04-27T04:49:09.429Z,5.63
2018-04-27T04:50:09.402Z,5.63
2018-04-27T04:51:09.416Z,5.63
2018-04-27T04:52:09.354Z,5.63
2018-04-27T04:53:09.331Z,5.63
2018-04-27T04:54:09.312Z,5.63
2018-04-27T04:55:09.305Z,5.63
2018-04-27T04:56:09.262Z,5.63
2018-04-27T04:57:09.237Z,5.63
2018-04-27T04:58:09.210Z,5.63
2018-04-27T04:59:09.193Z,5.63
2018-04-27T05:00:09.164Z,5.63
2018-04-27T05:01:09.141Z,5.63
2018-04-27T05:02:09.114Z,5.63
2018-04-27T05:03:09.091Z,5.63
2018-04-27T05:04:09.070Z,5.63
2018-04-27T05:05:09.051Z,5.63
2018-04-27T05:06:09.025Z,5.63
2018-04-27T05:07:09.014Z,5.63
2018-04-27T05:08:08.975Z,5.63
2018-04-27T05:09:08.959Z,5.63
2018-04-27T05:10:08.936Z,5.63
2018-04-27T05:11:08.901Z,5.63
2018-04-27T05:12:08.876Z,5.63
2018-04-27T05:13:08.854Z,11.25
2018-04-27T05:14:08.832Z,11.25
2018-04-27T05:15:08.809Z,11.25
2018-04-27T05:16:08.778Z,11.25
2018-04-27T05:17:08.755Z,11.25
2018-04-27T05:18:08.729Z,11.25
2018-04-27T05:19:08.713Z,11.25
2018-04-27T05:20:08.692Z,11.25
2018-04-27T05:21:08.673Z,11.25
2018-04-27T05:22:08.649Z,11.25
2018-04-27T05:23:08.614Z,11.25
2018-04-27T05:24:08.612Z,11.25
2018-04-27T05:25:08.577Z,11.25
2018-04-27T05:26:08.536Z,11.25
2018-04-27T05:27:11.182Z,11.25
2018-04-27T05:28:08.490Z,11.25
2018-04-27T05:29:08.507Z,11.25
2018-04-27T05:30:08.443Z,11.25
2018-04-27T05:31:08.417Z,11.25
2018-04-27T05:32:08.392Z,11.25
2018-04-27T05:33:08.373Z,11.25
2018-04-27T05:34:08.346Z,11.25
2018-04-27T05:35:08.326Z,11.25
2018-04-27T05:36:08.299Z,11.25
2018-04-27T05:37:08.277Z,11.25
2018-04-27T05:38:08.250Z,11.25
2018-04-27T05:39:08.225Z,11.25
2018-04-27T05:40:08.199Z,11.25
2018-04-27T05:41:08.175Z,11.25
2018-04-27T05:42:08.157Z,11.25
2018-04-27T05:43:08.131Z,11.25
2018-04-27T05:44:08.113Z,11.25
2018-04-27T05:45:08.087Z,16.88
2018-04-27T05:46:08.063Z,16.88
2018-04-27T05:47:08.037Z,16.88
2018-04-27T05:48:08.012Z,22.50
2018-04-27T05:49:07.990Z,22.50
2018-04-27T05:50:07.961Z,22.50
2018-04-27T05:51:07.930Z,28.13
2018-04-27T05:52:07.912Z,22.50
2018-04-27T05:53:07.898Z,22.50
2018-04-27T05:54:07.937Z,22.50
2018-04-27T05:55:07.845Z,22.50
2018-04-27T05:56:07.817Z,22.50
2018-04-27T05:57:07.790Z,22.50
2018-04-27T05:58:07.773Z,22.50
2018-04-27T05:59:07.744Z,22.50
2018-04-27T06:00:07.725Z,22.50
2018-04-27T06:01:07.696Z,28.13
2018-04-27T06:02:07.673Z,22.50
2018-04-27T06:03:07.648Z,28.13
2018-04-27T06:04:07.625Z,28.13
2018-04-27T06:05:07.608Z,28.13
2018-04-27T06:06:07.582Z,33.75
2018-04-27T06:07:07.617Z,33.75
2018-04-27T06:08:07.527Z,33.75
2018-04-27T06:09:07.522Z,33.75
2018-04-27T06:10:07.550Z,33.75
2018-04-27T06:11:07.459Z,28.13
2018-04-27T06:12:07.444Z,28.13
2018-04-27T06:13:07.412Z,28.13
2018-04-27T06:14:07.387Z,28.13
2018-04-27T06:15:07.363Z,28.13
2018-04-27T06:16:07.410Z,28.13
2018-04-27T06:17:07.315Z,28.13
2018-04-27T06:18:07.293Z,28.13
2018-04-27T06:19:07.272Z,28.13
2018-04-27T06:20:07.252Z,28.13
2018-04-27T06:21:07.219Z,28.13
2018-04-27T06:22:07.194Z,28.13
2018-04-27T06:23:07.175Z,28.13
2018-04-27T06:24:07.174Z,28.13
2018-04-27T06:25:07.129Z,28.13
2018-04-27T06:26:07.104Z,28.13
2018-04-27T06:27:07.078Z,28.13
2018-04-27T06:28:07.053Z,28.13
2018-04-27T06:29:07.055Z,33.75
2018-04-27T06:30:07.006Z,33.75
2018-04-27T06:31:06.989Z,33.75
2018-04-27T06:32:06.978Z,33.75
2018-04-27T06:33:06.937Z,33.75
2018-04-27T06:34:06.916Z,33.75
2018-04-27T06:35:06.889Z,33.75
2018-04-27T06:36:06.865Z,33.75
2018-04-27T06:37:06.855Z,33.75
2018-04-27T06:38:06.815Z,33.75
2018-04-27T06:39:06.803Z,33.75
2018-04-27T06:40:06.773Z,33.75
2018-04-27T06:41:06.748Z,33.75
2018-04-27T06:42:06.742Z,28.13
2018-04-27T06:43:06.729Z,28.13
2018-04-27T06:44:06.686Z,28.13
2018-04-27T06:45:06.697Z,28.13
2018-04-27T06:46:06.627Z,28.13
2018-04-27T06:47:06.604Z,28.13
2018-04-27T06:48:06.586Z,28.13
2018-04-27T06:49:06.570Z,28.13
2018-04-27T06:50:06.534Z,28.13
2018-04-27T06:51:06.516Z,28.13
2018-04-27T06:52:06.489Z,28.13
2018-04-27T06:53:06.470Z,28.13
2018-04-27T06:54:06.450Z,33.75
2018-04-27T06:55:06.419Z,33.75
2018-04-27T06:56:06.411Z,33.75
2018-04-27T06:57:06.371Z,33.75
2018-04-27T06:58:09.234Z,33.75
2018-04-27T06:59:06.358Z,33.75
2018-04-27T07:00:06.303Z,33.75
2018-04-27T07:01:06.278Z,39.38
2018-04-27T07:02:06.255Z,39.38
2018-04-27T07:03:06.233Z,39.38
2018-04-27T07:04:06.209Z,39.38
2018-04-27T07:05:06.286Z,39.38
2018-04-27T07:06:06.174Z,39.38
2018-04-27T07:07:06.136Z,39.38
2018-04-27T07:08:06.117Z,39.38
2018-04-27T07:09:06.107Z,39.38
2018-04-27T07:10:06.066Z,39.38
2018-04-27T07:11:06.055Z,45.00
2018-04-27T07:12:06.021Z,45.00
2018-04-27T07:13:05.999Z,45.00
2018-04-27T07:14:05.974Z,45.00
2018-04-27T07:15:05.953Z,45.00
2018-04-27T07:16:05.928Z,50.63
2018-04-27T07:17:05.932Z,50.63
2018-04-27T07:18:05.897Z,50.63
2018-04-27T07:19:05.863Z,50.63
2018-04-27T07:20:05.836Z,45.00
2018-04-27T07:21:05.821Z,45.00
2018-04-27T07:22:05.822Z,45.00
2018-04-27T07:23:05.782Z,50.63
2018-04-27T07:24:05.784Z,50.63
2018-04-27T07:25:05.717Z,50.63
2018-04-27T07:26:05.699Z,56.25
2018-04-27T07:27:05.675Z,56.25
2018-04-27T07:28:05.648Z,61.88
2018-04-27T07:29:05.625Z,61.88
2018-04-27T07:30:05.614Z,61.88
2018-04-27T07:31:05.581Z,67.50
2018-04-27T07:32:05.558Z,67.50
2018-04-27T07:33:05.535Z,73.13
2018-04-27T07:34:05.556Z,73.13
2018-04-27T07:35:05.491Z,73.13
2018-04-27T07:36:05.466Z,73.13
2018-04-27T07:37:05.447Z,73.13
2018-04-27T07:38:05.420Z,73.13
2018-04-27T07:39:05.397Z,73.13
2018-04-27T07:40:05.375Z,73.13
2018-04-27T07:41:05.352Z,73.13
2018-04-27T07:42:05.328Z,73.13
2018-04-27T07:43:05.301Z,73.13
2018-04-27T07:44:05.280Z,73.13
2018-04-27T07:45:05.257Z,67.50
2018-04-27T07:46:05.237Z,67.50
2018-04-27T07:47:05.214Z,67.50
2018-04-27T07:48:05.192Z,73.13
2018-04-27T07:49:05.166Z,73.13
2018-04-27T07:50:05.146Z,67.50
2018-04-27T07:51:05.124Z,67.50
2018-04-27T07:52:05.100Z,61.88
2018-04-27T07:53:05.077Z,56.25
2018-04-27T07:54:05.056Z,56.25
2018-04-27T07:55:05.031Z,61.88
2018-04-27T07:56:05.011Z,61.88
2018-04-27T07:57:04.984Z,61.88
2018-04-27T07:58:04.963Z,67.50
2018-04-27T07:59:07.737Z,67.50
2018-04-27T08:00:04.916Z,67.50
2018-04-27T08:01:04.898Z,67.50
2018-04-27T08:02:04.998Z,67.50
2018-04-27T08:03:04.851Z,73.13
2018-04-27T08:04:04.862Z,78.75
2018-04-27T08:05:04.863Z,84.38
2018-04-27T08:06:04.800Z,84.38
2018-04-27T08:07:04.763Z,84.38
2018-04-27T08:08:04.738Z,84.38
2018-04-27T08:09:04.721Z,84.38
2018-04-27T08:10:04.704Z,84.38
2018-04-27T08:11:04.669Z,84.38
2018-04-27T08:12:04.648Z,90.00
2018-04-27T08:13:04.631Z,90.00
2018-04-27T08:14:04.606Z,84.38
2018-04-27T08:15:04.581Z,84.38
2018-04-27T08:16:04.565Z,84.38
2018-04-27T08:17:04.535Z,84.38
2018-04-27T08:18:04.513Z,84.38
2018-04-27T08:19:04.518Z,90.00
2018-04-27T08:20:04.468Z,95.63
2018-04-27T08:21:04.450Z,101.25
2018-04-27T08:22:04.426Z,101.25
2018-04-27T08:23:04.402Z,112.50
2018-04-27T08:24:04.384Z,112.50
2018-04-27T08:25:04.359Z,112.50
2018-04-27T08:26:04.344Z,106.88
2018-04-27T08:27:04.324Z,106.88
2018-04-27T08:28:04.296Z,106.88
2018-04-27T08:29:04.271Z,106.88
2018-04-27T08:30:04.247Z,106.88
2018-04-27T08:31:04.234Z,112.50
2018-04-27T08:32:04.216Z,106.88
2018-04-27T08:33:04.204Z,112.50
2018-04-27T08:34:04.164Z,106.88
2018-04-27T08:35:04.139Z,106.88
2018-04-27T08:36:04.134Z,112.50
2018-04-27T08:37:04.092Z,112.50
2018-04-27T08:38:04.069Z,118.13
2018-04-27T08:39:04.051Z,112.50
2018-04-27T08:40:04.040Z,118.13
2018-04-27T08:41:04.009Z,123.75
2018-04-27T08:42:04.009Z,123.75
2018-04-27T08:43:03.963Z,123.75
2018-04-27T08:44:03.947Z,123.75
2018-04-27T08:45:03.958Z,123.75
2018-04-27T08:46:04.188Z,123.75
2018-04-27T08:47:03.887Z,129.38
2018-04-27T08:48:03.854Z,135.00
2018-04-27T08:49:03.835Z,129.38
2018-04-27T08:50:03.810Z,123.75
2018-04-27T08:51:03.799Z,129.38
2018-04-27T08:52:03.773Z,135.00
2018-04-27T08:53:03.757Z,135.00
2018-04-27T08:54:03.735Z,129.38
2018-04-27T08:55:03.707Z,135.00
2018-04-27T08:56:03.686Z,123.75
2018-04-27T08:57:03.664Z,118.13
2018-04-27T08:58:03.646Z,118.13
2018-04-27T08:59:03.625Z,106.88
2018-04-27T09:00:03.605Z,112.50
2018-04-27T09:01:03.584Z,112.50
2018-04-27T09:02:03.566Z,129.38
2018-04-27T09:03:03.538Z,129.38
2018-04-27T09:04:03.513Z,135.00
2018-04-27T09:05:03.505Z,135.00
2018-04-27T09:06:03.479Z,140.63
2018-04-27T09:07:03.640Z,135.00
2018-04-27T09:08:03.433Z,129.38
2018-04-27T09:09:03.413Z,135.00
2018-04-27T09:10:03.406Z,151.88
2018-04-27T09:11:03.382Z,168.75
2018-04-27T09:12:03.353Z,180.00
2018-04-27T09:13:03.334Z,191.25
2018-04-27T09:14:03.308Z,196.88
2018-04-27T09:15:03.287Z,202.50
2018-04-27T09:16:03.283Z,208.13
2018-04-27T09:17:03.251Z,219.38
2018-04-27T09:18:03.228Z,225.00
2018-04-27T09:19:03.214Z,225.00
2018-04-27T09:20:03.186Z,236.25
2018-04-27T09:21:03.166Z,236.25
2018-04-27T09:22:03.145Z,236.25
2018-04-27T09:23:03.128Z,236.25
2018-04-27T09:24:03.108Z,241.88
2018-04-27T09:25:03.098Z,247.50
2018-04-27T09:26:03.077Z,236.25
2018-04-27T09:27:03.052Z,236.25
2018-04-27T09:28:03.067Z,247.50
2018-04-27T09:29:03.056Z,247.50
2018-04-27T09:30:02.999Z,264.38
2018-04-27T09:31:02.980Z,253.13
2018-04-27T09:32:02.961Z,241.88
2018-04-27T09:33:02.950Z,236.25
2018-04-27T09:34:02.927Z,258.75
2018-04-27T09:35:02.921Z,241.88
2018-04-27T09:36:02.909Z,247.50
2018-04-27T09:37:02.893Z,247.50
2018-04-27T09:38:02.860Z,247.50
2018-04-27T09:39:02.846Z,258.75
2018-04-27T09:40:02.827Z,264.38
2018-04-27T09:41:02.895Z,264.38
2018-04-27T09:42:02.793Z,270.00
2018-04-27T09:43:02.774Z,275.63
2018-04-27T09:44:02.761Z,275.63
2018-04-27T09:45:02.745Z,275.63
2018-04-27T09:46:02.731Z,264.38
2018-04-27T09:47:02.712Z,264.38
2018-04-27T09:48:02.695Z,270.00
2018-04-27T09:49:02.678Z,270.00
2018-04-27T09:50:02.663Z,264.38
2018-04-27T09:51:02.652Z,230.63
2018-04-27T09:52:02.631Z,202.50
2018-04-27T09:53:02.614Z,225.00
2018-04-27T09:54:02.599Z,236.25
2018-04-27T09:55:02.581Z,230.63
2018-04-27T09:56:02.566Z,230.63
2018-04-27T09:57:02.553Z,225.00
2018-04-27T09:58:02.530Z,219.38
2018-04-27T09:59:02.519Z,219.38
2018-04-27T10:00:38.253Z,208.13
2018-04-27T10:01:02.481Z,219.38
2018-04-27T10:02:02.464Z,219.38
2018-04-27T10:03:02.446Z,202.50
2018-04-27T10:04:02.440Z,202.50
2018-04-27T10:05:02.414Z,185.63
2018-04-27T10:06:02.397Z,185.63
2018-04-27T10:07:02.385Z,202.50
2018-04-27T10:08:02.365Z,151.88
2018-04-27T10:09:02.344Z,140.63
2018-04-27T10:10:02.343Z,185.63
2018-04-27T10:11:02.316Z,180.00
2018-04-27T10:12:02.296Z,163.13
2018-04-27T10:13:02.276Z,202.50
2018-04-27T10:14:02.261Z,213.75
2018-04-27T10:15:02.249Z,213.75
2018-04-27T10:16:02.225Z,219.38
2018-04-27T10:17:02.215Z,202.50
2018-04-27T10:18:02.193Z,208.13
2018-04-27T10:19:02.181Z,202.50
2018-04-27T10:20:02.159Z,196.88
2018-04-27T10:21:02.175Z,202.50
2018-04-27T10:22:02.120Z,202.50
2018-04-27T10:23:02.107Z,213.75
2018-04-27T10:24:02.088Z,213.75
2018-04-27T10:25:02.067Z,208.13
2018-04-27T10:26:02.059Z,202.50
2018-04-27T10:27:02.033Z,213.75
2018-04-27T10:28:02.015Z,219.38
2018-04-27T10:29:02.001Z,208.13
2018-04-27T10:30:01.984Z,213.75
2018-04-27T10:31:01.983Z,225.00
2018-04-27T10:32:01.946Z,225.00
2018-04-27T10:33:01.928Z,219.38
2018-04-27T10:34:01.911Z,213.75
2018-04-27T10:35:01.889Z,219.38
2018-04-27T10:36:01.872Z,219.38
2018-04-27T10:37:01.854Z,208.13
2018-04-27T10:38:01.851Z,213.75
2018-04-27T10:39:01.819Z,219.38
2018-04-27T10:40:01.801Z,213.75
2018-04-27T10:41:01.781Z,151.88
2018-04-27T10:42:01.781Z,129.38
2018-04-27T10:43:01.796Z,196.88
2018-04-27T10:44:01.730Z,174.38
2018-04-27T10:45:01.709Z,185.63
2018-04-27T10:46:01.705Z,196.88
2018-04-27T10:47:01.676Z,202.50
2018-04-27T10:48:01.664Z,241.88
2018-04-27T10:49:01.640Z,236.25
2018-04-27T10:50:01.655Z,281.25
2018-04-27T10:51:01.602Z,331.88
2018-04-27T10:52:01.584Z,568.13
2018-04-27T10:53:01.565Z,697.50
2018-04-27T10:54:01.544Z,618.75
2018-04-27T10:55:01.529Z,663.75
2018-04-27T10:56:01.549Z,545.63
2018-04-27T10:57:01.493Z,658.13
2018-04-27T10:58:01.473Z,613.13
2018-04-27T10:59:01.460Z,585.00
2018-04-27T11:00:01.443Z,613.13
2018-04-27T11:02:33.614Z,376.88
2018-04-27T11:03:33.529Z,331.88
2018-04-27T11:05:29.532Z,410.63
2018-04-27T11:06:29.472Z,686.25
2018-04-27T11:08:25.421Z,1518.75
2018-04-27T11:09:25.331Z,1749.38
2018-04-27T11:11:18.772Z,1822.50
2018-04-27T11:12:18.697Z,1715.63
2018-04-27T11:14:14.663Z,1625.63
2018-04-27T11:15:14.602Z,2148.75
2018-04-27T11:17:10.547Z,3588.75
2018-04-27T11:18:10.455Z,3088.13
2018-04-27T11:20:03.911Z,2638.13
2018-04-27T11:21:03.836Z,1361.25
2018-04-27T11:22:59.805Z,1383.75
2018-04-27T11:23:59.710Z,1400.63
2018-04-27T11:25:53.165Z,1006.88
2018-04-27T11:26:53.081Z,928.13
2018-04-27T11:28:49.061Z,793.13
2018-04-27T11:29:48.963Z,821.25
2018-04-27T11:31:45.013Z,883.13
2018-04-27T11:32:44.910Z,984.38
2018-04-27T11:34:40.918Z,905.63
2018-04-27T11:35:40.838Z,759.38
2018-04-27T11:37:36.794Z,731.25
2018-04-27T11:38:36.771Z,691.88
2018-04-27T11:40:30.159Z,607.50
2018-04-27T11:41:30.071Z,618.75
2018-04-27T11:43:26.036Z,523.13
2018-04-27T11:44:25.957Z,472.50
2018-04-27T11:46:21.962Z,298.13
2018-04-27T11:47:21.896Z,225.00
2018-04-27T11:49:17.883Z,151.88
2018-04-27T11:50:17.820Z,393.75
2018-04-27T11:52:13.771Z,326.25
2018-04-27T11:53:13.751Z,286.88
2018-04-27T11:55:09.652Z,478.13
2018-04-27T11:56:09.595Z,410.63
2018-04-27T11:58:05.533Z,337.50
2018-04-27T11:59:05.457Z,281.25
2018-04-27T12:01:01.476Z,247.50
2018-04-27T12:02:01.447Z,241.88
2018-04-27T12:03:54.807Z,219.38
2018-04-27T12:04:54.715Z,230.63
2018-04-27T12:06:50.687Z,225.00
2018-04-27T12:07:50.629Z,230.63
2018-04-27T12:09:46.593Z,202.50
2018-04-27T12:10:46.577Z,196.88
2018-04-27T12:12:39.967Z,151.88
2018-04-27T12:13:39.885Z,191.25
2018-04-27T12:15:36.703Z,174.38
2018-04-27T12:16:36.647Z,191.25
2018-04-27T12:18:30.118Z,180.00
2018-04-27T12:19:30.037Z,180.00
2018-04-27T12:21:23.505Z,174.38
2018-04-27T12:22:23.440Z,174.38
2018-04-27T12:24:19.409Z,163.13
2018-04-27T12:25:19.305Z,157.50
2018-04-27T12:27:15.352Z,157.50
2018-04-27T12:28:15.205Z,157.50
2018-04-27T12:30:11.165Z,151.88
2018-04-27T12:31:11.102Z,151.88
2018-04-27T12:33:07.108Z,140.63
2018-04-27T12:34:07.022Z,135.00
2018-04-27T12:36:00.741Z,135.00
2018-04-27T12:37:00.426Z,146.25
2018-04-27T12:38:56.412Z,196.88
2018-04-27T12:39:56.341Z,168.75
2018-04-27T12:41:52.289Z,123.75
2018-04-27T12:42:52.201Z,123.75
2018-04-27T12:44:45.652Z,118.13
2018-04-27T12:45:45.571Z,112.50
2018-04-27T12:47:41.521Z,106.88
2018-04-27T12:48:41.424Z,106.88
2018-04-27T12:50:37.398Z,101.25
2018-04-27T12:51:37.306Z,95.63
2018-04-27T12:53:33.269Z,90.00
2018-04-27T12:54:33.186Z,90.00
2018-04-27T12:56:26.661Z,84.38
2018-04-27T12:57:26.583Z,78.75
2018-04-27T12:59:20.030Z,73.13
2018-04-27T13:00:19.954Z,67.50
2018-04-27T13:02:15.932Z,67.50
2018-04-27T13:03:15.849Z,61.88
2018-04-27T13:05:11.796Z,61.88
2018-04-27T13:06:11.713Z,61.88
2018-04-27T13:08:08.567Z,56.25
2018-04-27T13:09:08.458Z,50.63
2018-04-27T13:11:05.251Z,50.63
2018-04-27T13:12:05.163Z,50.63
2018-04-27T13:14:01.150Z,45.00
2018-04-27T13:15:01.047Z,45.00
2018-04-27T13:16:57.012Z,50.63
2018-04-27T13:17:56.929Z,45.00
2018-04-27T13:19:52.892Z,45.00
2018-04-27T13:20:52.804Z,45.00
2018-04-27T13:22:48.769Z,45.00
2018-04-27T13:23:48.684Z,45.00
2018-04-27T13:25:44.633Z,45.00
2018-04-27T13:26:44.549Z,45.00
2018-04-27T13:28:38.085Z,50.63
2018-04-27T13:29:37.979Z,45.00
2018-04-27T13:31:33.932Z,45.00
2018-04-27T13:32:33.847Z,45.00
2018-04-27T13:34:27.407Z,45.00
2018-04-27T13:35:27.277Z,45.00
2018-04-27T13:37:23.292Z,45.00
2018-04-27T13:38:23.235Z,45.00
2018-04-27T13:40:16.680Z,45.00
2018-04-27T13:41:16.639Z,50.63
2018-04-27T13:43:10.056Z,45.00
2018-04-27T13:44:09.951Z,45.00
2018-04-27T13:46:05.903Z,45.00
2018-04-27T13:47:05.825Z,45.00